Time;durP1;ratioP1;P1;durP2;ratioP2;P2;SDS_P1;SDS_P2;PMS_P1;PMS_P2;Temp;Humidity;BMP_temperature;BMP_pressure;BME280_temperature;BME280_humidity;BME280_pressure;Samples;Min_cycle;Max_cycle;Signal;HPM_P1;HPM_P2
2022/08/11 00:00:07;;;;;;;4.63;3.90;;;;;;;;;;5047253;28;20453;-83
2022/08/11 00:02:35;;;;;;;4.47;3.70;;;;;;;;;;5046945;28;20557;-82
2022/08/11 00:05:04;;;;;;;5.87;3.87;;;;;;;;;;5047602;28;20458;-82
2022/08/11 00:07:32;;;;;;;5.30;4.10;;;;;;;;;;5048126;28;20892;-82
2022/08/11 00:09:59;;;;;;;4.28;3.70;;;;;;;;;;5049132;28;20419;-82
2022/08/11 00:12:25;;;;;;;4.28;3.88;;;;;;;;;;5045464;28;20419;-82
2022/08/11 00:14:56;;;;;;;6.20;4.30;;;;;;;;;;5045360;28;20509;-84
2022/08/11 00:17:26;;;;;;;5.13;4.05;;;;;;;;;;5047454;28;20423;-84
2022/08/11 00:19:55;;;;;;;5.60;3.80;;;;;;;;;;5047008;28;20425;-83
2022/08/11 00:22:22;;;;;;;4.03;3.63;;;;;;;;;;5045226;28;20435;-84
2022/08/11 00:24:50;;;;;;;4.38;3.97;;;;;;;;;;5046996;28;20531;-84
2022/08/11 00:27:17;;;;;;;4.80;4.00;;;;;;;;;;5047162;28;20438;-82
2022/08/11 00:29:51;;;;;;;7.60;3.50;;;;;;;;;;5047104;28;20922;-82
2022/08/11 00:32:18;;;;;;;5.93;3.72;;;;;;;;;;5047425;28;20434;-82
2022/08/11 00:34:45;;;;;;;4.00;3.60;;;;;;;;;;5046120;28;20439;-83
2022/08/11 00:37:17;;;;;;;4.90;4.50;;;;;;;;;;5046348;28;20433;-83
2022/08/11 00:39:44;;;;;;;4.50;4.00;;;;;;;;;;5045322;28;20436;-84
2022/08/11 00:42:19;;;;;;;3.90;3.60;;;;;;;;;;5047915;28;20779;-84
2022/08/11 00:44:53;;;;;;;4.43;3.60;;;;;;;;;;5047726;28;20429;-83
2022/08/11 00:47:25;;;;;;;5.33;4.07;;;;;;;;;;5046473;28;20417;-84
2022/08/11 00:49:58;;;;;;;4.72;3.50;;;;;;;;;;5060307;28;20492;-82
2022/08/11 00:52:44;;;;;;;4.35;3.70;;;;;;;;;;5044929;28;20935;-82
2022/08/11 00:55:36;;;;;;;5.90;4.15;;;;;;;;;;5046882;28;20433;-82
2022/08/11 00:58:23;;;;;;;4.90;3.90;;;;;;;;;;5066039;28;20428;-82
2022/08/11 01:01:05;;;;;;;5.75;3.50;;;;;;;;;;5043694;28;20439;-81
2022/08/11 01:03:44;;;;;;;4.90;4.00;;;;;;;;;;5066021;28;20435;-82
2022/08/11 01:06:33;;;;;;;6.85;4.22;;;;;;;;;;5069656;28;20427;-81
2022/08/11 01:09:12;;;;;;;7.50;4.20;;;;;;;;;;5067395;28;20868;-82
2022/08/11 01:12:02;;;;;;;5.05;4.00;;;;;;;;;;5065844;28;20425;-81
2022/08/11 01:14:44;;;;;;;4.22;3.83;;;;;;;;;;5051184;28;20456;-80
2022/08/11 01:17:28;;;;;;;4.32;4.00;;;;;;;;;;5064719;28;20826;-82
2022/08/11 01:20:11;;;;;;;5.10;3.90;;;;;;;;;;5066618;28;20427;-81
2022/08/11 01:22:52;;;;;;;4.97;4.00;;;;;;;;;;5065488;28;20789;-81
2022/08/11 01:25:45;;;;;;;8.30;4.18;;;;;;;;;;5064062;28;20439;-82
2022/08/11 01:28:36;;;;;;;4.18;3.88;;;;;;;;;;5064917;28;20802;-81
2022/08/11 01:31:15;;;;;;;4.80;4.20;;;;;;;;;;5011049;28;20428;-82
2022/08/11 01:34:03;;;;;;;6.43;4.50;;;;;;;;;;5064035;28;20419;-82
2022/08/11 01:36:44;;;;;;;4.50;4.10;;;;;;;;;;5060916;28;20428;-83
2022/08/11 01:39:41;;;;;;;4.18;3.78;;;;;;;;;;5048148;28;20431;-83
2022/08/11 01:45:25;;;;;;;5.30;3.92;;;;;;;;;;5067153;28;20429;-80
2022/08/11 01:47:59;;;;;;;4.55;4.15;;;;;;;;;;5066606;28;20522;-81
2022/08/11 01:50:37;;;;;;;4.40;4.00;;;;;;;;;;5065085;28;20853;-81
2022/08/11 01:53:08;;;;;;;4.70;4.30;;;;;;;;;;5065242;28;20431;-80
2022/08/11 01:55:39;;;;;;;5.50;4.03;;;;;;;;;;5065398;28;20450;-82
2022/08/11 01:58:09;;;;;;;6.32;4.45;;;;;;;;;;5066884;28;20423;-81
2022/08/11 02:00:43;;;;;;;5.18;4.60;;;;;;;;;;5063547;28;20437;-80
2022/08/11 02:03:13;;;;;;;5.13;4.00;;;;;;;;;;5066510;28;20439;-81
2022/08/11 02:05:59;;;;;;;5.18;4.68;;;;;;;;;;5064919;28;20443;-81
2022/08/11 02:08:33;;;;;;;6.70;4.50;;;;;;;;;;5066492;28;20460;-83
2022/08/11 02:13:55;;;;;;;4.68;4.28;;;;;;;;;;5068483;28;20449;-81
2022/08/11 02:16:28;;;;;;;4.72;4.22;;;;;;;;;;5064014;28;20438;-82
2022/08/11 02:24:34;;;;;;;9.60;5.07;;;;;;;;;;5066531;28;20494;-82
2022/08/11 02:27:04;;;;;;;4.68;4.22;;;;;;;;;;5065471;28;20517;-84
2022/08/11 02:29:35;;;;;;;5.20;4.60;;;;;;;;;;5065842;28;20429;-82
2022/08/11 02:34:56;;;;;;;5.43;4.10;;;;;;;;;;5068273;28;20557;-82
2022/08/11 02:37:27;;;;;;;6.53;4.47;;;;;;;;;;5067451;28;20434;-80
2022/08/11 02:40:06;;;;;;;7.07;4.35;;;;;;;;;;5065153;28;20425;-82
2022/08/11 02:42:35;;;;;;;6.07;4.60;;;;;;;;;;5065357;28;20425;-81
2022/08/11 02:45:12;;;;;;;5.63;4.10;;;;;;;;;;5066383;28;20427;-82
2022/08/11 02:49:52;;;;;;;6.70;4.90;;;;;;;;;;5063015;28;21333;-81
2022/08/11 02:50:30;;;;;;;6.70;4.30;;;;;;;;;;5065523;28;20426;-81
2022/08/11 02:53:05;;;;;;;4.80;4.40;;;;;;;;;;5064410;28;20533;-82
2022/08/11 02:55:35;;;;;;;6.50;4.43;;;;;;;;;;5066374;28;20460;-83
2022/08/11 02:58:09;;;;;;;5.20;4.60;;;;;;;;;;5065275;28;20901;-81
2022/08/11 03:00:46;;;;;;;6.82;4.82;;;;;;;;;;5064163;28;20425;-81
2022/08/11 03:03:20;;;;;;;5.57;4.70;;;;;;;;;;5066152;28;20431;-84
2022/08/11 03:05:59;;;;;;;5.20;4.30;;;;;;;;;;5062913;28;20433;-83
2022/08/11 03:08:35;;;;;;;8.77;4.90;;;;;;;;;;5064626;28;20424;-83
2022/08/11 03:16:47;;;;;;;5.75;4.60;;;;;;;;;;5064851;28;20440;-83
2022/08/11 03:19:26;;;;;;;7.20;4.70;;;;;;;;;;5066062;28;20433;-82
2022/08/11 03:21:59;;;;;;;5.77;4.70;;;;;;;;;;5063259;28;20429;-83
2022/08/11 03:24:28;;;;;;;5.38;4.75;;;;;;;;;;5067226;28;20525;-82
2022/08/11 03:27:03;;;;;;;7.50;4.75;;;;;;;;;;5064941;28;20408;-82
2022/08/11 03:29:32;;;;;;;6.35;5.13;;;;;;;;;;5067543;28;20809;-80
2022/08/11 03:32:03;;;;;;;5.82;5.10;;;;;;;;;;5070116;28;20496;-82
2022/08/11 03:34:30;;;;;;;4.75;4.10;;;;;;;;;;5069907;28;20434;-82
2022/08/11 03:40:03;;;;;;;6.63;5.10;;;;;;;;;;5068876;28;20411;-83
2022/08/11 03:42:32;;;;;;;7.43;4.60;;;;;;;;;;5069648;28;20424;-81
2022/08/11 03:45:17;;;;;;;6.60;4.47;;;;;;;;;;5069908;28;20793;-81
2022/08/11 03:47:49;;;;;;;4.73;4.30;;;;;;;;;;5068580;28;20421;-82
2022/08/11 03:50:30;;;;;;;5.72;4.82;;;;;;;;;;5070086;28;20420;-83
2022/08/11 03:53:10;;;;;;;4.80;4.20;;;;;;;;;;5068549;28;20922;-81
2022/08/11 03:55:48;;;;;;;6.20;4.75;;;;;;;;;;5067158;28;21796;-81
2022/08/11 03:58:38;;;;;;;5.40;4.90;;;;;;;;;;5068666;28;20431;-81
2022/08/11 04:01:24;;;;;;;6.50;4.90;;;;;;;;;;5069660;28;20415;-81
2022/08/11 04:04:07;;;;;;;6.05;4.97;;;;;;;;;;5065678;28;20447;-83
2022/08/11 04:06:55;;;;;;;6.45;5.20;;;;;;;;;;5066262;28;20451;-83
2022/08/11 04:09:45;;;;;;;8.77;5.20;;;;;;;;;;5067771;28;20432;-80
2022/08/11 04:12:18;;;;;;;5.60;4.90;;;;;;;;;;5067223;28;20433;-82
2022/08/11 04:18:00;;;;;;;6.30;5.22;;;;;;;;;;5069614;28;20435;-82
2022/08/11 04:20:38;;;;;;;5.40;4.90;;;;;;;;;;5067558;28;20436;-82
2022/08/11 04:23:26;;;;;;;5.80;4.97;;;;;;;;;;5069532;28;20446;-82
2022/08/11 04:26:11;;;;;;;6.40;5.00;;;;;;;;;;5059087;28;20427;-82
2022/08/11 04:28:54;;;;;;;7.18;4.85;;;;;;;;;;5066625;28;20434;-83
2022/08/11 04:31:38;;;;;;;5.40;4.80;;;;;;;;;;5062886;28;20432;-81
2022/08/11 04:34:13;;;;;;;6.35;4.80;;;;;;;;;;5066464;28;20432;-82
2022/08/11 04:40:00;;;;;;;5.80;4.97;;;;;;;;;;5067451;28;20432;-82
2022/08/11 04:45:44;;;;;;;6.93;4.80;;;;;;;;;;5068918;28;20421;-81
2022/08/11 05:02:50;;;;;;;4.75;4.35;;;;;;;;;;5067902;28;20511;-81
2022/08/11 05:05:32;;;;;;;5.90;4.90;;;;;;;;;;5066680;28;20451;-83
2022/08/11 05:08:17;;;;;;;8.93;5.95;;;;;;;;;;5065685;28;20429;-83
2022/08/11 05:10:48;;;;;;;6.82;5.25;;;;;;;;;;5066746;28;20438;-84
2022/08/11 05:35:31;;;;;;;8.05;5.70;;;;;;;;;;5067520;28;20480;-80
2022/08/11 05:57:20;;;;;;;8.97;6.00;;;;;;;;;;5063319;28;20452;-82
2022/08/11 05:59:47;;;;;;;7.15;5.80;;;;;;;;;;5066335;28;20429;-81
2022/08/11 06:02:15;;;;;;;10.20;6.43;;;;;;;;;;5064810;28;20447;-82
2022/08/11 06:04:42;;;;;;;5.97;5.40;;;;;;;;;;5067106;28;20435;-84
2022/08/11 06:07:09;;;;;;;7.80;6.20;;;;;;;;;;5051322;28;20417;-83
2022/08/11 06:09:37;;;;;;;9.20;5.40;;;;;;;;;;5047035;28;20427;-81
2022/08/11 06:12:05;;;;;;;8.45;5.80;;;;;;;;;;5043901;28;20436;-80
2022/08/11 06:14:32;;;;;;;7.13;5.93;;;;;;;;;;5048056;28;20438;-80
2022/08/11 06:17:00;;;;;;;8.70;5.90;;;;;;;;;;5043862;28;21031;-81
2022/08/11 06:19:35;;;;;;;6.53;5.75;;;;;;;;;;5047014;28;20433;-81
2022/08/11 06:22:02;;;;;;;6.88;5.47;;;;;;;;;;5045788;28;20434;-81
2022/08/11 06:24:31;;;;;;;11.47;5.87;;;;;;;;;;5045336;28;21317;-81
2022/08/11 06:26:58;;;;;;;5.40;4.90;;;;;;;;;;5044917;28;20439;-81
2022/08/11 06:29:24;;;;;;;7.15;5.60;;;;;;;;;;5045537;28;20437;-82
2022/08/11 06:31:53;;;;;;;11.32;5.68;;;;;;;;;;5044643;28;20415;-81
2022/08/11 06:34:28;;;;;;;5.77;5.10;;;;;;;;;;5044920;28;20427;-81
2022/08/11 06:37:00;;;;;;;7.97;5.40;;;;;;;;;;5042779;28;20806;-81
2022/08/11 06:39:28;;;;;;;5.53;5.03;;;;;;;;;;5042393;28;20441;-81
2022/08/11 06:41:59;;;;;;;7.75;5.00;;;;;;;;;;5043580;28;20428;-82
2022/08/11 06:44:31;;;;;;;7.55;4.90;;;;;;;;;;5043426;28;20436;-82
2022/08/11 06:47:05;;;;;;;9.57;5.40;;;;;;;;;;5043338;28;20829;-82
2022/08/11 06:52:29;;;;;;;7.78;5.18;;;;;;;;;;5043553;28;20450;-82
2022/08/11 06:55:05;;;;;;;5.90;5.30;;;;;;;;;;5044312;28;20413;-84
2022/08/11 07:00:29;;;;;;;6.03;4.68;;;;;;;;;;5046345;28;20479;-81
2022/08/11 07:03:00;;;;;;;6.95;4.30;;;;;;;;;;5043958;28;20431;-81
2022/08/11 07:05:28;;;;;;;9.83;5.37;;;;;;;;;;5047180;28;20545;-80
2022/08/11 07:16:39;;;;;;;5.00;4.50;;;;;;;;;;5065805;28;20960;-81
2022/08/11 07:30:24;;;;;;;7.20;5.10;;;;;;;;;;5023897;28;20967;-81
2022/08/11 07:32:53;;;;;;;7.53;5.18;;;;;;;;;;5023623;28;20458;-82
2022/08/11 07:35:22;;;;;;;7.18;5.00;;;;;;;;;;5033252;28;20420;-80
2022/08/11 07:37:59;;;;;;;11.07;5.00;;;;;;;;;;5066848;28;20511;-82
2022/08/11 07:40:25;;;;;;;8.13;4.90;;;;;;;;;;5066142;28;20425;-83
2022/08/11 07:42:55;;;;;;;10.48;4.85;;;;;;;;;;5065232;28;20793;-81
2022/08/11 07:53:36;;;;;;;4.70;4.00;;;;;;;;;;5067093;28;20473;-82
2022/08/11 07:56:04;;;;;;;7.38;4.43;;;;;;;;;;5065480;28;20526;-82
2022/08/11 08:17:56;;;;;;;5.60;4.00;;;;;;;;;;5064225;28;20439;-81
2022/08/11 08:20:24;;;;;;;6.60;3.80;;;;;;;;;;5063948;28;20427;-80
2022/08/11 08:22:55;;;;;;;7.70;3.90;;;;;;;;;;5065394;28;20429;-81
2022/08/11 08:25:22;;;;;;;5.85;4.10;;;;;;;;;;5066787;28;20518;-81
2022/08/11 08:27:49;;;;;;;4.68;3.50;;;;;;;;;;5063424;28;20417;-82
2022/08/11 08:33:02;;;;;;;3.43;3.13;;;;;;;;;;5065775;28;20481;-83
2022/08/11 08:35:29;;;;;;;6.10;3.20;;;;;;;;;;5065910;28;20431;-80
2022/08/11 08:38:04;;;;;;;4.10;3.10;;;;;;;;;;5066579;28;20425;-84
2022/08/11 08:40:30;;;;;;;4.43;3.10;;;;;;;;;;5065238;28;20450;-82
2022/08/11 08:43:02;;;;;;;4.30;3.50;;;;;;;;;;5066215;28;20421;-81
2022/08/11 08:45:33;;;;;;;5.77;3.30;;;;;;;;;;5066151;28;21067;-82
2022/08/11 08:48:00;;;;;;;4.80;3.50;;;;;;;;;;5064709;28;20524;-83
2022/08/11 08:51:33;;;;;;;3.63;3.17;;;;;;;;;;5063033;28;20425;-81
2022/08/11 08:53:17;;;;;;;4.32;3.10;;;;;;;;;;5063320;28;20421;-83
2022/08/11 08:55:46;;;;;;;3.60;2.60;;;;;;;;;;5065145;28;20431;-80
2022/08/11 08:58:12;;;;;;;4.40;2.80;;;;;;;;;;5063192;28;20440;-81
2022/08/11 09:00:43;;;;;;;3.25;2.40;;;;;;;;;;5061580;28;20446;-81
2022/08/11 09:03:10;;;;;;;3.28;2.50;;;;;;;;;;5066749;28;20431;-82
2022/08/11 09:05:37;;;;;;;3.35;2.30;;;;;;;;;;5065687;28;20427;-81
2022/08/11 09:08:03;;;;;;;4.95;2.78;;;;;;;;;;5064894;28;20804;-81
2022/08/11 09:10:31;;;;;;;4.30;2.35;;;;;;;;;;5065536;28;20802;-81
2022/08/11 09:12:59;;;;;;;5.63;2.20;;;;;;;;;;5063596;28;20969;-81
2022/08/11 09:15:26;;;;;;;4.28;2.40;;;;;;;;;;5066725;28;20429;-80
2022/08/11 09:18:02;;;;;;;3.30;2.65;;;;;;;;;;5063262;28;20822;-81
2022/08/11 09:20:32;;;;;;;3.33;2.42;;;;;;;;;;5065401;28;20461;-82
2022/08/11 09:28:30;;;;;;;3.38;2.17;;;;;;;;;;5063956;28;20617;-80
2022/08/11 09:30:59;;;;;;;2.95;2.30;;;;;;;;;;5065186;28;20392;-81
2022/08/11 09:33:28;;;;;;;2.50;2.10;;;;;;;;;;5063864;28;20461;-81
2022/08/11 09:35:54;;;;;;;2.45;2.10;;;;;;;;;;5064214;28;20432;-81
2022/08/11 09:41:08;;;;;;;3.08;2.10;;;;;;;;;;5062850;28;20487;-81
2022/08/11 09:46:25;;;;;;;3.30;2.00;;;;;;;;;;5062388;28;20412;-79
2022/08/11 09:48:55;;;;;;;4.07;2.40;;;;;;;;;;5062060;28;20438;-81
2022/08/11 09:51:24;;;;;;;4.05;2.53;;;;;;;;;;5060976;28;20419;-82
2022/08/11 09:53:50;;;;;;;3.63;2.40;;;;;;;;;;5061343;28;20446;-82
2022/08/11 09:59:03;;;;;;;4.03;2.83;;;;;;;;;;5062699;28;20798;-80
2022/08/11 10:01:30;;;;;;;3.92;2.80;;;;;;;;;;5060422;28;20508;-83
2022/08/11 10:04:00;;;;;;;4.82;2.90;;;;;;;;;;5063717;28;20432;-82
2022/08/11 10:09:12;;;;;;;3.40;3.10;;;;;;;;;;5064898;28;20964;-82
2022/08/11 10:11:40;;;;;;;3.33;2.70;;;;;;;;;;5062670;28;20423;-81
2022/08/11 10:16:51;;;;;;;4.28;2.95;;;;;;;;;;5061708;28;20431;-81
2022/08/11 10:19:20;;;;;;;3.30;2.67;;;;;;;;;;5061085;28;20443;-82
2022/08/11 10:26:48;;;;;;;3.10;2.80;;;;;;;;;;5062559;28;20427;-82
2022/08/11 10:27:21;;;;;;;4.37;2.70;;;;;;;;;;5062753;28;20425;-84
2022/08/11 10:35:18;;;;;;;3.72;2.60;;;;;;;;;;5064064;28;20430;-82
2022/08/11 10:37:46;;;;;;;2.90;2.60;;;;;;;;;;5062994;28;20413;-79
2022/08/11 10:40:14;;;;;;;2.60;2.30;;;;;;;;;;5063915;28;20443;-85
2022/08/11 10:48:09;;;;;;;3.17;2.67;;;;;;;;;;5071699;28;20431;-83
2022/08/11 10:58:53;;;;;;;3.47;2.28;;;;;;;;;;5066734;28;20424;-85
2022/08/11 11:01:23;;;;;;;3.20;2.50;;;;;;;;;;5065101;28;20413;-82
2022/08/11 11:03:51;;;;;;;3.03;2.40;;;;;;;;;;5067937;28;20458;-83
2022/08/11 11:06:24;;;;;;;2.83;2.43;;;;;;;;;;5066224;28;20420;-82
2022/08/11 11:08:52;;;;;;;2.80;2.40;;;;;;;;;;5067248;28;20435;-81
2022/08/11 11:11:19;;;;;;;3.13;2.58;;;;;;;;;;5067671;28;20403;-83
2022/08/11 11:19:23;;;;;;;5.20;2.42;;;;;;;;;;5067968;28;20428;-84
2022/08/11 11:21:53;;;;;;;4.20;2.30;;;;;;;;;;5054768;28;20437;-80
2022/08/11 11:24:36;;;;;;;5.53;2.30;;;;;;;;;;5046978;28;20931;-82
2022/08/11 11:27:11;;;;;;;2.80;2.55;;;;;;;;;;5044876;28;20505;-82
2022/08/11 11:29:53;;;;;;;2.40;2.20;;;;;;;;;;5048904;28;20429;-81
2022/08/11 11:32:30;;;;;;;4.75;2.40;;;;;;;;;;5046278;28;21012;-83
2022/08/11 11:35:14;;;;;;;3.63;2.40;;;;;;;;;;5045446;28;20433;-82
2022/08/11 11:37:42;;;;;;;3.17;2.33;;;;;;;;;;5038444;28;20433;-81
2022/08/11 11:40:10;;;;;;;3.83;2.30;;;;;;;;;;5048280;28;20441;-81
2022/08/11 11:42:37;;;;;;;2.47;2.10;;;;;;;;;;5046804;28;20436;-84
2022/08/11 11:45:04;;;;;;;5.57;2.60;;;;;;;;;;5046264;28;20442;-81
2022/08/11 11:47:32;;;;;;;2.65;2.30;;;;;;;;;;5046114;28;20430;-82
2022/08/11 11:49:59;;;;;;;3.40;2.60;;;;;;;;;;5047811;28;20429;-84
2022/08/11 11:52:26;;;;;;;3.07;2.40;;;;;;;;;;5046590;28;20434;-83
2022/08/11 11:54:57;;;;;;;3.22;2.63;;;;;;;;;;5048176;28;20436;-83
2022/08/11 12:02:54;;;;;;;3.70;2.60;;;;;;;;;;5046886;28;20485;-82
2022/08/11 12:05:21;;;;;;;6.00;2.40;;;;;;;;;;5046914;28;20441;-82
2022/08/11 12:10:33;;;;;;;2.78;2.25;;;;;;;;;;5046488;28;20466;-80
2022/08/11 12:15:46;;;;;;;5.80;2.30;;;;;;;;;;5046540;28;20512;-82
2022/08/11 12:18:12;;;;;;;5.50;2.30;;;;;;;;;;5047212;28;20443;-82
2022/08/11 12:20:39;;;;;;;4.70;2.15;;;;;;;;;;5045209;28;20518;-83
2022/08/11 12:28:35;;;;;;;3.17;2.10;;;;;;;;;;5046140;28;20429;-81
2022/08/11 12:31:01;;;;;;;5.10;2.30;;;;;;;;;;5045483;28;20412;-81
2022/08/11 12:33:28;;;;;;;3.25;1.98;;;;;;;;;;5046760;28;20804;-83
2022/08/11 12:35:58;;;;;;;3.38;2.10;;;;;;;;;;5045301;28;20438;-83
2022/08/11 12:38:25;;;;;;;5.43;2.42;;;;;;;;;;5044851;28;20442;-82
2022/08/11 12:46:23;;;;;;;3.00;2.45;;;;;;;;;;5045109;28;20459;-83
2022/08/11 12:54:25;;;;;;;2.50;2.00;;;;;;;;;;5045128;28;20432;-83
2022/08/11 13:05:13;;;;;;;2.75;2.15;;;;;;;;;;5048754;28;20421;-78
2022/08/11 13:07:42;;;;;;;3.33;2.00;;;;;;;;;;5060849;28;20425;-80
2022/08/11 13:10:10;;;;;;;3.90;2.40;;;;;;;;;;5064903;28;20440;-82
2022/08/11 13:12:49;;;;;;;2.95;2.50;;;;;;;;;;5065094;28;20420;-81
2022/08/11 13:15:17;;;;;;;3.53;2.20;;;;;;;;;;5063356;28;20428;-82
2022/08/11 13:17:46;;;;;;;2.20;2.00;;;;;;;;;;5063917;28;20442;-81
2022/08/11 13:20:13;;;;;;;5.20;1.90;;;;;;;;;;5065821;28;20444;-82
2022/08/11 13:22:44;;;;;;;2.80;2.20;;;;;;;;;;5064092;28;20429;-82
2022/08/11 13:25:11;;;;;;;3.45;2.30;;;;;;;;;;5065486;28;20441;-81
2022/08/11 13:27:40;;;;;;;3.97;2.30;;;;;;;;;;5067104;28;20429;-82
2022/08/11 13:32:52;;;;;;;3.25;2.13;;;;;;;;;;5063268;28;20445;-82
2022/08/11 13:35:19;;;;;;;4.35;2.20;;;;;;;;;;5063280;28;20429;-82
2022/08/11 13:37:47;;;;;;;3.90;2.22;;;;;;;;;;5063810;28;20424;-84
2022/08/11 13:40:16;;;;;;;4.40;2.20;;;;;;;;;;5064494;28;20429;-82
2022/08/11 13:42:44;;;;;;;3.03;2.30;;;;;;;;;;5066972;28;20420;-82
2022/08/11 13:45:11;;;;;;;2.40;2.20;;;;;;;;;;5063169;28;20435;-83
2022/08/11 13:47:37;;;;;;;4.03;2.35;;;;;;;;;;5065722;28;20431;-83
2022/08/11 13:50:04;;;;;;;4.65;2.65;;;;;;;;;;5065131;28;20433;-85
2022/08/11 13:52:31;;;;;;;2.55;2.13;;;;;;;;;;5065217;28;20815;-81
2022/08/11 13:54:59;;;;;;;3.63;2.20;;;;;;;;;;5061711;28;20471;-82
2022/08/11 13:57:26;;;;;;;4.22;2.50;;;;;;;;;;5064048;28;20948;-80
2022/08/11 13:59:55;;;;;;;3.83;2.00;;;;;;;;;;5064560;28;20427;-82
2022/08/11 14:02:35;;;;;;;2.45;1.80;;;;;;;;;;5061151;28;20445;-83
2022/08/11 14:05:05;;;;;;;3.90;2.47;;;;;;;;;;5061957;28;20411;-83
2022/08/11 14:07:34;;;;;;;2.78;2.30;;;;;;;;;;5062082;28;20951;-83
2022/08/11 14:10:01;;;;;;;3.47;2.30;;;;;;;;;;5065651;28;20521;-83
2022/08/11 14:15:23;;;;;;;2.40;2.20;;;;;;;;;;5005344;28;20471;-82
2022/08/11 14:17:55;;;;;;;2.22;2.03;;;;;;;;;;5060998;28;20468;-82
2022/08/11 14:20:22;;;;;;;3.30;2.40;;;;;;;;;;5062737;28;20682;-80
2022/08/11 14:22:48;;;;;;;4.97;2.10;;;;;;;;;;5059810;28;20427;-81
2022/08/11 14:25:15;;;;;;;4.30;2.33;;;;;;;;;;5062698;28;20508;-82
2022/08/11 14:27:44;;;;;;;2.97;2.50;;;;;;;;;;5060362;28;20428;-83
2022/08/11 14:30:53;;;;;;;2.60;2.00;;;;;;;;;;5060004;28;20446;-83
2022/08/11 14:33:01;;;;;;;3.00;2.40;;;;;;;;;;5060421;28;20870;-81
2022/08/11 14:35:28;;;;;;;4.65;2.40;;;;;;;;;;5063065;28;20440;-82
2022/08/11 14:37:55;;;;;;;2.20;2.00;;;;;;;;;;5040745;28;20404;-81
2022/08/11 14:48:31;;;;;;;4.28;2.30;;;;;;;;;;5059527;28;20456;-80
2022/08/11 14:50:58;;;;;;;5.18;2.17;;;;;;;;;;5062130;28;20419;-83
2022/08/11 14:53:25;;;;;;;3.13;2.40;;;;;;;;;;5062689;28;20429;-83
2022/08/11 14:58:36;;;;;;;3.33;2.42;;;;;;;;;;5062754;28;20425;-81
2022/08/11 15:03:05;;;;;;;2.60;2.30;;;;;;;;;;5060053;28;20916;-80
2022/08/11 15:03:51;;;;;;;3.80;2.30;;;;;;;;;;5061297;28;20434;-84
2022/08/11 15:06:17;;;;;;;3.80;2.50;;;;;;;;;;5062051;28;20437;-83
2022/08/11 15:08:56;;;;;;;3.10;2.43;;;;;;;;;;5058567;28;20918;-82
2022/08/11 15:14:09;;;;;;;2.60;2.40;;;;;;;;;;5062588;28;20945;-81
2022/08/11 15:19:22;;;;;;;3.53;2.60;;;;;;;;;;5063146;28;20837;-82
2022/08/11 15:24:35;;;;;;;3.60;2.60;;;;;;;;;;5063999;28;20479;-81
2022/08/11 15:38:04;;;;;;;3.67;3.30;;;;;;;;;;5064604;28;20422;-80
2022/08/11 15:46:09;;;;;;;3.60;2.92;;;;;;;;;;5064549;28;20520;-81
2022/08/11 15:48:41;;;;;;;3.38;2.88;;;;;;;;;;5066947;28;20423;-81
2022/08/11 15:51:10;;;;;;;3.35;2.70;;;;;;;;;;5066417;28;20430;-80
2022/08/11 15:53:41;;;;;;;3.72;2.80;;;;;;;;;;5063537;28;20429;-81
2022/08/11 15:56:08;;;;;;;4.30;3.03;;;;;;;;;;5064641;28;20414;-81
2022/08/11 16:04:14;;;;;;;3.50;2.90;;;;;;;;;;5065363;28;20470;-83
2022/08/11 16:06:44;;;;;;;4.32;2.90;;;;;;;;;;5062288;28;20995;-82
2022/08/11 16:09:12;;;;;;;4.30;2.90;;;;;;;;;;5063768;28;20424;-83
2022/08/11 16:11:39;;;;;;;5.82;2.90;;;;;;;;;;5065478;28;20427;-83
2022/08/11 16:16:51;;;;;;;5.75;3.03;;;;;;;;;;5065433;28;20422;-82
2022/08/11 16:19:18;;;;;;;4.60;3.10;;;;;;;;;;5066097;28;20421;-80
2022/08/11 16:21:49;;;;;;;4.88;3.05;;;;;;;;;;5063626;28;20467;-80
2022/08/11 16:24:17;;;;;;;5.20;3.30;;;;;;;;;;5064490;28;20457;-80
2022/08/11 16:26:45;;;;;;;5.22;2.72;;;;;;;;;;5063309;28;20433;-81
2022/08/11 16:29:12;;;;;;;3.00;2.60;;;;;;;;;;5064355;28;20427;-81
2022/08/11 16:31:40;;;;;;;4.47;2.78;;;;;;;;;;5061553;28;20413;-82
2022/08/11 16:38:33;;;;;;;4.10;3.00;;;;;;;;;;5065163;28;20443;-81
2022/08/11 16:39:40;;;;;;;3.90;2.80;;;;;;;;;;5063700;28;20817;-79
2022/08/11 16:47:45;;;;;;;5.10;3.10;;;;;;;;;;5006921;28;20496;-81
2022/08/11 16:50:12;;;;;;;4.32;2.83;;;;;;;;;;5065171;28;20910;-81
2022/08/11 16:52:41;;;;;;;3.30;2.80;;;;;;;;;;5064709;28;20431;-81
2022/08/11 16:55:08;;;;;;;5.05;3.00;;;;;;;;;;5066013;28;20466;-81
2022/08/11 17:00:21;;;;;;;3.90;2.80;;;;;;;;;;5063805;28;20512;-80
2022/08/11 17:13:55;;;;;;;3.85;3.10;;;;;;;;;;5064488;28;20449;-81
2022/08/11 17:16:23;;;;;;;6.60;3.30;;;;;;;;;;5064802;28;20764;-81
2022/08/11 17:18:54;;;;;;;5.93;3.22;;;;;;;;;;5062561;28;20431;-82
2022/08/11 17:21:22;;;;;;;3.28;2.97;;;;;;;;;;5063551;28;21299;-81
2022/08/11 17:23:51;;;;;;;3.85;3.10;;;;;;;;;;5064317;28;20913;-81
2022/08/11 17:26:19;;;;;;;5.07;2.90;;;;;;;;;;5063673;28;20423;-81
2022/08/11 17:28:50;;;;;;;3.83;3.17;;;;;;;;;;5066441;28;20427;-82
2022/08/11 17:36:47;;;;;;;5.32;3.65;;;;;;;;;;5062628;28;20431;-81
2022/08/11 17:39:15;;;;;;;4.10;3.30;;;;;;;;;;5064903;28;20445;-82
2022/08/11 17:49:56;;;;;;;5.60;3.70;;;;;;;;;;5064902;28;20523;-81
2022/08/11 18:00:40;;;;;;;6.70;3.97;;;;;;;;;;5064097;28;20615;-81
2022/08/11 18:05:51;;;;;;;5.47;3.40;;;;;;;;;;5063446;28;20418;-80
